GMT,Max TemperatureF,Mean TemperatureF,Min TemperatureF,Max Dew PointF,MeanDew PointF,Min DewpointF,Max Humidity, Mean Humidity, Min Humidity, Max Sea Level PressureIn, Mean Sea Level PressureIn, Min Sea Level PressureIn, Max VisibilityMiles, Mean VisibilityMiles, Min VisibilityMiles, Max Wind SpeedMPH, Mean Wind SpeedMPH, Max Gust SpeedMPH,PrecipitationIn, CloudCover, Events, WindDirDegrees
2013-10-1,61,59,57,61,60,57,100,100,100,29.55,29.52,29.47,6,1,0,18,14,,0.39,7,Fog-Rain,137
2013-10-2,63,61,59,63,61,60,100,100,94,29.55,29.50,29.27,9,4,0,22,16,36,0.02,6,Fog-Rain-Thunderstorm,167
2013-10-3,61,60,59,61,60,59,100,100,100,29.56,29.52,29.50,7,4,0,15,10,,0.24,7,Fog-Rain,197
2013-10-4,62,56,50,59,55,48,100,95,77,29.98,29.77,29.56,16,6,1,14,8,,0.04,4,Rain,291
2013-10-5,62,55,48,57,54,48,100,92,68,30.21,30.11,30.01,19,7,6,14,7,,0.00,4,Rain,217
2013-10-6,62,58,54,63,60,57,100,100,99,30.21,30.18,30.15,12,3,0,17,11,,0.08,7,Fog-Rain,211
2013-10-7,62,60,59,63,60,59,100,100,98,30.19,30.13,30.09,9,5,0,21,13,30,0.04,6,Fog-Rain,210
2013-10-8,62,56,51,61,55,50,100,92,68,30.36,30.25,30.15,12,5,0,12,6,,0.01,5,Fog,285
2013-10-9,58,51,44,52,48,39,100,84,63,30.37,30.30,30.24,19,6,6,21,9,,0.00,5,Rain,309
2013-10-10,53,45,37,41,39,34,100,78,58,30.40,30.36,30.33,6,6,6,18,12,,0.00,1,,344
2013-10-11,56,48,39,47,42,37,93,82,66,30.40,30.34,30.33,12,6,6,14,10,,0.00,2,,19
2013-10-12,54,50,46,50,48,45,94,87,76,30.33,30.22,30.15,19,7,6,13,10,,0.00,6,,38
2013-10-13,55,52,50,52,50,46,100,92,82,30.15,30.05,29.98,16,7,6,10,7,,0.00,6,,350
2013-10-14,57,50,43,47,44,42,93,84,66,30.01,29.93,29.86,16,6,6,12,8,,0.00,3,,7
2013-10-15,55,50,45,54,49,43,100,92,82,29.88,29.81,29.74,17,7,6,18,9,,0.01,5,Rain,104
2013-10-16,60,55,50,55,52,48,100,92,72,29.77,29.66,29.50,6,5,1,23,16,,0.20,4,Rain,227
2013-10-17,61,54,48,59,54,48,100,99,94,29.87,29.83,29.77,19,6,0,16,8,,0.01,5,Fog-Rain,204
2013-10-18,59,56,54,59,57,55,100,100,99,29.83,29.59,29.44,12,4,0,32,16,47,0.67,7,Fog-Rain,148
2013-10-19,59,54,50,59,56,50,100,97,88,29.44,29.40,29.33,16,7,6,20,12,37,0.08,6,Rain,182
2013-10-20,59,54,48,55,52,48,100,95,77,29.56,29.37,29.21,19,7,6,22,13,32,0.24,4,Rain,216
2013-10-21,59,54,50,60,57,50,100,100,99,29.56,29.30,29.18,19,5,1,26,12,38,0.31,6,Rain,172
2013-10-22,59,55,51,59,56,52,100,99,88,29.21,29.10,29.03,16,6,4,18,13,,0.20,6,Rain,189
2013-10-23,57,52,46,53,47,43,100,88,55,29.74,29.47,29.09,19,6,6,17,11,,0.00,3,Rain,260
2013-10-24,57,52,46,57,55,48,100,99,94,29.77,29.66,29.42,12,4,0,25,11,36,0.31,6,Fog-Rain,126
2013-10-25,61,57,51,59,55,52,100,96,82,29.50,29.39,29.33,19,6,2,25,14,,0.12,5,Rain,203
2013-10-26,55,52,48,54,49,45,100,90,77,29.58,29.42,29.21,19,6,2,28,12,41,0.20,4,Rain,226
2013-10-27,55,50,46,50,48,45,100,89,71,29.27,29.20,29.12,19,7,5,28,17,44,0.12,4,Rain,237
2013-10-28,51,48,42,47,43,39,100,85,56,29.71,29.36,29.09,16,6,6,21,13,30,0.08,4,Rain,265
2013-10-29,52,46,41,43,40,39,93,81,62,30.06,29.94,29.71,19,7,6,17,12,,0.00,3,Rain,269
2013-10-30,56,48,40,57,48,41,100,91,77,30.06,29.92,29.77,19,6,1,27,10,41,0.20,5,Rain,221
2013-10-31,54,49,44,50,47,43,100,92,79,30.01,29.90,29.83,19,7,4,16,10,,0.12,5,Rain,230